Waterdown, Canada
Current Conditions -  °F | °C
As of 11:00 AM on Friday 24 Oct 2014 (Local Time) from CYHM Reporting Station
Scattered Clouds Scattered Clouds  
Wind Chill: 37°   Ceiling: Unl
Heat Index: 43°   Visibility: 12mi
Dew Point: 39°   Wind: 9mph
Humidity: 87%   Direction: 260°W
Pressure: 30.06"   Gusts: NA
Location:  43.33°N, 79.88°W
Report Text: CYHM 241500Z 26008KT 12SM FEW010 FEW020 SCT230 06/04 A3006 RMK CU1SC1CI3 CU TR SLP185
Loading
Personal Weather Stations






























Interactive Weather Map
Tropical Storm Tracking
New forecast layout! Learn more

10-Day Weather Forecast

Advertisements
Track Severe Weather on mobile